Time;durP1;ratioP1;P1;durP2;ratioP2;P2;SDS_P1;SDS_P2;PMS_P1;PMS_P2;Temp;Humidity;BMP_temperature;BMP_pressure;BME280_temperature;BME280_humidity;BME280_pressure;Samples;Min_cycle;Max_cycle;Signal;HPM_P1;HPM_P2
2021/07/20 00:00:17;;;;;;;2.83;2.28;;;15.20;99.90;;;;;;4950000;28;20195;-77
2021/07/20 00:02:51;;;;;;;4.82;2.92;;;15.20;99.90;;;;;;4949724;29;20186;-78
2021/07/20 00:05:21;;;;;;;4.93;2.47;;;15.30;99.90;;;;;;4949112;29;20706;-78
2021/07/20 00:07:58;;;;;;;4.22;2.25;;;15.30;99.90;;;;;;4949988;28;20205;-78
2021/07/20 00:10:31;;;;;;;4.60;2.85;;;15.30;99.90;;;;;;4948763;29;20217;-78
2021/07/20 00:12:58;;;;;;;3.80;2.72;;;15.20;99.90;;;;;;4950149;29;20229;-78
2021/07/20 00:15:25;;;;;;;4.53;2.75;;;15.10;99.90;;;;;;4950449;28;20658;-78
2021/07/20 00:17:53;;;;;;;5.38;2.70;;;15.30;99.90;;;;;;4948554;28;20690;-77
2021/07/20 00:20:21;;;;;;;5.18;2.70;;;15.20;99.90;;;;;;4949511;29;20181;-77
2021/07/20 00:22:48;;;;;;;6.25;2.88;;;15.20;99.90;;;;;;4948561;28;20196;-78
2021/07/20 00:25:14;;;;;;;4.20;3.10;;;15.10;99.90;;;;;;4949741;28;20213;-78
2021/07/20 00:27:40;;;;;;;3.75;2.70;;;15.20;99.90;;;;;;4948772;28;20272;-78
2021/07/20 00:30:07;;;;;;;4.10;2.30;;;15.10;99.90;;;;;;4949782;28;20632;-77
2021/07/20 00:32:33;;;;;;;3.78;2.67;;;15.10;99.90;;;;;;4964358;28;20233;-78
2021/07/20 00:34:58;;;;;;;3.42;2.55;;;15.20;99.90;;;;;;4948386;28;20604;-78
2021/07/20 00:37:24;;;;;;;4.75;2.65;;;15.20;99.90;;;;;;4953257;28;20209;-77
2021/07/20 00:39:50;;;;;;;3.53;2.28;;;15.20;99.90;;;;;;4952965;29;20200;-78
2021/07/20 00:42:15;;;;;;;4.90;2.90;;;15.40;99.90;;;;;;4951887;28;20579;-78
2021/07/20 00:44:41;;;;;;;2.42;2.22;;;15.30;99.90;;;;;;4951913;29;20190;-78
2021/07/20 00:47:07;;;;;;;4.07;2.67;;;15.30;99.90;;;;;;4952773;28;20209;-78
2021/07/20 00:49:33;;;;;;;3.92;2.78;;;15.40;99.90;;;;;;4953238;28;20181;-78
2021/07/20 00:51:58;;;;;;;4.47;2.92;;;15.30;99.90;;;;;;4951766;28;20193;-78
2021/07/20 00:54:24;;;;;;;3.13;2.30;;;15.20;99.90;;;;;;4952993;28;20178;-78
2021/07/20 00:56:51;;;;;;;3.38;2.50;;;15.20;99.90;;;;;;4953048;28;20572;-78
2021/07/20 00:59:17;;;;;;;6.22;3.17;;;15.20;99.90;;;;;;4950987;29;20178;-77
2021/07/20 01:01:43;;;;;;;4.38;2.72;;;15.30;99.90;;;;;;4952777;29;20185;-79
2021/07/20 01:04:09;;;;;;;3.67;2.47;;;15.30;99.90;;;;;;4953219;28;20333;-78
2021/07/20 01:06:35;;;;;;;3.65;2.33;;;15.20;99.90;;;;;;4952718;28;20233;-78
2021/07/20 01:09:03;;;;;;;4.13;2.88;;;15.20;99.90;;;;;;4952374;28;20210;-77
2021/07/20 01:11:32;;;;;;;5.93;2.70;;;15.30;99.90;;;;;;4952948;29;20213;-78
2021/07/20 01:13:58;;;;;;;3.97;2.72;;;15.30;99.90;;;;;;4952186;29;20255;-78
2021/07/20 01:16:24;;;;;;;5.35;3.13;;;15.30;99.90;;;;;;4952343;29;20692;-77
2021/07/20 01:18:51;;;;;;;3.80;2.10;;;15.30;99.90;;;;;;4950418;28;20260;-78
2021/07/20 01:21:18;;;;;;;4.95;2.90;;;15.20;99.90;;;;;;4952675;28;20271;-77
2021/07/20 01:23:46;;;;;;;5.50;3.03;;;15.20;99.90;;;;;;4952174;29;20182;-78
2021/07/20 01:26:12;;;;;;;5.32;2.95;;;15.20;99.90;;;;;;4952443;28;20209;-78
2021/07/20 01:28:41;;;;;;;6.68;3.45;;;15.20;99.90;;;;;;4950937;28;20224;-77
2021/07/20 01:31:11;;;;;;;6.05;2.72;;;15.30;99.90;;;;;;4951650;28;20185;-78
2021/07/20 01:33:41;;;;;;;5.50;3.17;;;15.20;99.90;;;;;;4951990;29;20185;-77
2021/07/20 01:36:08;;;;;;;4.97;3.10;;;15.20;99.90;;;;;;4952099;28;20253;-78
2021/07/20 01:38:35;;;;;;;3.13;2.65;;;15.20;99.90;;;;;;4951955;29;20834;-77
2021/07/20 01:41:08;;;;;;;3.53;2.40;;;15.20;99.90;;;;;;4952318;28;20188;-78
2021/07/20 01:43:37;;;;;;;4.47;2.78;;;15.20;99.90;;;;;;4951098;29;20201;-78
2021/07/20 01:46:03;;;;;;;5.57;3.67;;;15.20;99.90;;;;;;4951793;28;20213;-77
2021/07/20 01:48:35;;;;;;;4.75;3.15;;;15.20;99.90;;;;;;4950350;28;20208;-78
2021/07/20 01:51:02;;;;;;;5.20;3.47;;;15.20;99.90;;;;;;4951660;28;20779;-78
2021/07/20 01:53:29;;;;;;;4.57;3.08;;;15.30;99.90;;;;;;4951618;28;20173;-77
2021/07/20 01:55:55;;;;;;;4.43;2.30;;;15.30;99.90;;;;;;4951137;28;21246;-77
2021/07/20 01:58:21;;;;;;;4.03;2.28;;;15.30;99.90;;;;;;4949961;28;20213;-77
2021/07/20 02:00:47;;;;;;;4.60;3.10;;;15.20;99.90;;;;;;4949746;28;20239;-78
2021/07/20 02:08:38;;;;;;;5.57;2.97;;;14.90;99.90;;;;;;4950783;28;20216;-77
2021/07/20 02:11:11;;;;;;;3.75;2.30;;;14.90;99.90;;;;;;4949457;28;20190;-78
2021/07/20 02:13:43;;;;;;;4.68;2.90;;;14.90;99.90;;;;;;4951040;29;20679;-77
2021/07/20 02:16:12;;;;;;;5.07;3.35;;;14.90;99.90;;;;;;4950208;29;20193;-77
2021/07/20 02:18:59;;;;;;;4.10;2.22;;;15.10;99.90;;;;;;4964751;28;20205;-77
2021/07/20 02:21:26;;;;;;;4.07;2.47;;;15.00;99.90;;;;;;4947967;29;20924;-78
2021/07/20 02:23:53;;;;;;;3.30;2.45;;;15.00;99.90;;;;;;4950172;29;20189;-77
2021/07/20 02:26:20;;;;;;;5.22;3.05;;;15.00;99.90;;;;;;4963692;28;20209;-77
2021/07/20 02:28:48;;;;;;;5.88;3.28;;;15.00;99.90;;;;;;4948847;28;20205;-77
2021/07/20 02:31:16;;;;;;;5.20;3.08;;;15.10;99.90;;;;;;4949191;29;20181;-78
2021/07/20 02:33:42;;;;;;;4.90;2.45;;;15.00;99.90;;;;;;4950887;29;20193;-78
2021/07/20 02:36:09;;;;;;;6.65;3.45;;;15.10;99.90;;;;;;4951517;29;20649;-77
2021/07/20 02:38:37;;;;;;;4.38;2.47;;;15.10;99.90;;;;;;4949099;28;20232;-77
2021/07/20 02:41:04;;;;;;;5.82;3.47;;;15.20;99.90;;;;;;4949613;28;20268;-77
2021/07/20 02:43:30;;;;;;;4.88;3.13;;;15.20;99.90;;;;;;4950809;29;20185;-78
2021/07/20 02:45:57;;;;;;;3.75;2.40;;;15.10;99.90;;;;;;4951215;28;20213;-78
2021/07/20 02:48:24;;;;;;;3.30;2.50;;;15.10;99.90;;;;;;4950756;29;20237;-78
2021/07/20 02:50:51;;;;;;;5.82;2.72;;;15.20;99.90;;;;;;4950179;28;20225;-77
2021/07/20 02:53:22;;;;;;;4.75;2.78;;;15.10;99.90;;;;;;4975965;23;20307;-67
2021/07/20 02:55:53;;;;;;;4.95;2.35;;;15.20;99.90;;;;;;4968394;28;20526;-67
2021/07/20 02:58:21;;;;;;;5.00;2.95;;;15.20;99.90;;;;;;4970411;28;20181;-66
2021/07/20 03:00:47;;;;;;;3.30;2.05;;;15.20;99.90;;;;;;4955091;28;20733;-68
2021/07/20 03:03:13;;;;;;;3.75;2.35;;;15.10;99.90;;;;;;4950458;29;20193;-66
2021/07/20 03:05:40;;;;;;;3.40;2.75;;;15.20;99.90;;;;;;4950348;28;20201;-68
2021/07/20 03:08:08;;;;;;;5.43;2.90;;;15.10;99.90;;;;;;4949236;28;20178;-68
2021/07/20 03:10:36;;;;;;;4.57;2.83;;;15.10;99.90;;;;;;4947162;29;20735;-68
2021/07/20 03:13:06;;;;;;;4.57;2.60;;;15.10;99.90;;;;;;4948421;29;20189;-67
2021/07/20 03:15:32;;;;;;;4.15;2.80;;;15.10;99.90;;;;;;4948272;28;20185;-66
2021/07/20 03:18:01;;;;;;;3.67;2.70;;;15.10;99.90;;;;;;4947127;28;20181;-68
2021/07/20 03:20:29;;;;;;;5.03;3.00;;;15.10;99.90;;;;;;4947740;28;20292;-67
2021/07/20 03:22:55;;;;;;;4.60;2.22;;;15.10;99.90;;;;;;4948424;28;20788;-68
2021/07/20 03:25:22;;;;;;;4.55;3.47;;;15.10;99.90;;;;;;4948063;28;20212;-68
2021/07/20 03:27:48;;;;;;;3.22;2.50;;;15.10;99.90;;;;;;4948138;28;20177;-66
2021/07/20 03:30:14;;;;;;;3.22;2.17;;;15.10;99.90;;;;;;4948469;28;20209;-68
2021/07/20 03:32:45;;;;;;;3.33;2.28;;;15.10;99.90;;;;;;4948808;28;20193;-66
2021/07/20 03:35:13;;;;;;;3.70;2.25;;;15.10;99.90;;;;;;4948614;28;20675;-66
2021/07/20 03:37:39;;;;;;;3.75;2.70;;;15.10;99.90;;;;;;4948249;28;20189;-67
2021/07/20 03:40:06;;;;;;;3.72;2.38;;;15.10;99.90;;;;;;4948312;28;20300;-67
2021/07/20 03:42:32;;;;;;;4.13;2.70;;;15.10;99.90;;;;;;4948485;29;20193;-66
2021/07/20 03:44:58;;;;;;;4.35;2.58;;;15.10;99.90;;;;;;4948196;28;20206;-68
2021/07/20 03:47:24;;;;;;;4.55;3.15;;;15.10;99.90;;;;;;4947668;28;20192;-67
2021/07/20 03:49:53;;;;;;;5.03;2.67;;;15.00;99.90;;;;;;4947892;28;20256;-66
2021/07/20 03:52:20;;;;;;;4.00;2.50;;;15.10;99.90;;;;;;4948170;28;20190;-68
2021/07/20 03:54:48;;;;;;;3.80;2.45;;;15.10;99.90;;;;;;4947924;28;20190;-67
2021/07/20 03:57:20;;;;;;;3.78;2.75;;;15.20;99.90;;;;;;4947176;28;20190;-66
2021/07/20 03:59:49;;;;;;;3.88;2.50;;;15.30;99.90;;;;;;4947564;29;20591;-67
2021/07/20 04:02:21;;;;;;;4.72;2.97;;;15.20;99.90;;;;;;4947858;29;20192;-68
2021/07/20 04:04:48;;;;;;;2.88;2.42;;;15.20;99.90;;;;;;4947678;28;20196;-66
2021/07/20 04:07:18;;;;;;;2.83;2.08;;;15.20;99.90;;;;;;4946337;28;20205;-67
2021/07/20 04:09:45;;;;;;;4.63;2.28;;;15.20;99.90;;;;;;4947211;28;20633;-66
2021/07/20 04:12:14;;;;;;;3.22;1.98;;;15.20;99.90;;;;;;4946530;29;20217;-65
2021/07/20 04:14:47;;;;;;;3.85;2.40;;;15.20;99.90;;;;;;4947593;28;20276;-67
2021/07/20 04:17:14;;;;;;;4.65;2.50;;;15.20;99.90;;;;;;4947186;29;20185;-66
2021/07/20 04:19:41;;;;;;;4.43;2.35;;;15.20;99.90;;;;;;4947624;28;20219;-66
2021/07/20 04:22:08;;;;;;;4.10;2.40;;;15.30;99.90;;;;;;4947521;28;20189;-67
2021/07/20 04:24:35;;;;;;;3.65;2.83;;;15.40;99.90;;;;;;4947687;28;20261;-67
2021/07/20 04:27:02;;;;;;;2.65;2.05;;;15.30;99.90;;;;;;4946546;29;20664;-68
2021/07/20 04:29:28;;;;;;;5.90;2.17;;;15.40;99.90;;;;;;4947619;28;20207;-67
2021/07/20 04:31:56;;;;;;;3.50;2.55;;;15.40;99.90;;;;;;4947332;28;20186;-68
2021/07/20 04:34:22;;;;;;;3.17;2.47;;;15.40;99.90;;;;;;4947551;29;20193;-67
2021/07/20 04:36:49;;;;;;;4.72;2.40;;;15.50;99.90;;;;;;4947108;28;20311;-66
2021/07/20 04:39:15;;;;;;;4.25;2.63;;;15.50;99.90;;;;;;4947609;28;20213;-67
2021/07/20 04:41:44;;;;;;;3.45;2.28;;;15.50;99.90;;;;;;4947646;29;20185;-68
2021/07/20 04:44:09;;;;;;;2.78;2.10;;;15.50;99.90;;;;;;4947390;28;20226;-66
2021/07/20 04:46:36;;;;;;;3.80;2.58;;;15.60;99.90;;;;;;4947100;28;20784;-67
2021/07/20 04:49:03;;;;;;;4.45;2.70;;;15.60;99.90;;;;;;4947008;28;20621;-66
2021/07/20 04:51:31;;;;;;;4.75;2.50;;;15.70;99.90;;;;;;4947450;28;20181;-68
2021/07/20 04:53:59;;;;;;;2.25;1.95;;;15.50;99.90;;;;;;4947743;28;20205;-68
2021/07/20 04:56:24;;;;;;;5.68;2.33;;;15.40;99.90;;;;;;4947356;28;20674;-68
2021/07/20 04:58:50;;;;;;;3.00;2.35;;;15.40;99.90;;;;;;4947225;28;20209;-67
2021/07/20 05:01:16;;;;;;;2.85;2.15;;;15.50;99.90;;;;;;4947712;28;20216;-66
2021/07/20 05:03:43;;;;;;;4.20;2.10;;;15.50;99.90;;;;;;4948179;28;20194;-66
2021/07/20 05:06:12;;;;;;;3.95;2.22;;;15.60;99.90;;;;;;4949172;29;20205;-66
2021/07/20 05:08:39;;;;;;;4.55;2.50;;;15.60;99.90;;;;;;4949312;29;20237;-66
2021/07/20 05:11:05;;;;;;;3.38;2.05;;;15.60;99.90;;;;;;4949609;28;20295;-67
2021/07/20 05:13:32;;;;;;;4.07;2.30;;;15.70;99.90;;;;;;4949684;28;20174;-65
2021/07/20 05:16:00;;;;;;;4.38;2.55;;;15.60;99.90;;;;;;4948321;29;20189;-67
2021/07/20 05:18:26;;;;;;;3.05;2.42;;;15.70;99.90;;;;;;4949457;28;20186;-68
2021/07/20 05:20:57;;;;;;;4.72;2.15;;;15.60;99.90;;;;;;4949660;28;20209;-69
2021/07/20 05:23:23;;;;;;;3.13;2.45;;;15.70;99.90;;;;;;4951562;29;20248;-68
2021/07/20 05:25:53;;;;;;;3.55;2.58;;;15.80;99.90;;;;;;4952113;29;20277;-65
2021/07/20 05:28:25;;;;;;;4.32;2.28;;;15.70;99.90;;;;;;4952537;29;20236;-66
2021/07/20 05:30:55;;;;;;;2.38;1.83;;;15.70;99.90;;;;;;4953246;28;20216;-66
2021/07/20 05:33:30;;;;;;;2.42;2.08;;;15.80;99.90;;;;;;4953111;29;20301;-67
2021/07/20 05:35:58;;;;;;;3.22;2.13;;;15.90;99.90;;;;;;4952511;29;20263;-65
2021/07/20 05:38:24;;;;;;;3.00;1.92;;;16.00;99.90;;;;;;4953283;29;20182;-67
2021/07/20 05:40:53;;;;;;;3.25;2.10;;;16.10;99.90;;;;;;4953133;28;20201;-66
2021/07/20 05:43:19;;;;;;;2.72;2.30;;;16.10;99.90;;;;;;4952657;29;20190;-67
2021/07/20 05:45:45;;;;;;;2.97;2.33;;;16.20;99.90;;;;;;4950863;28;20213;-66
2021/07/20 05:48:23;;;;;;;4.82;2.60;;;16.30;99.90;;;;;;4952747;28;20190;-68
2021/07/20 05:50:53;;;;;;;2.78;2.03;;;16.30;99.90;;;;;;4953563;28;20209;-67
2021/07/20 05:53:21;;;;;;;2.10;1.83;;;16.30;99.90;;;;;;4953078;29;20677;-67
2021/07/20 05:55:52;;;;;;;3.42;2.22;;;16.30;99.90;;;;;;4952292;28;20182;-68
2021/07/20 05:58:20;;;;;;;2.63;1.90;;;16.30;99.90;;;;;;4952395;29;20536;-67
2021/07/20 06:00:52;;;;;;;3.03;2.38;;;16.40;99.90;;;;;;4952882;29;20222;-68
2021/07/20 06:03:20;;;;;;;3.90;2.38;;;16.50;99.90;;;;;;4952265;29;20193;-66
2021/07/20 06:05:50;;;;;;;2.88;2.28;;;16.50;99.90;;;;;;4952125;29;20443;-69
2021/07/20 06:08:18;;;;;;;3.08;1.75;;;16.60;99.90;;;;;;4952531;29;20752;-68
2021/07/20 06:10:56;;;;;;;4.35;1.88;;;16.70;99.90;;;;;;4952774;29;20232;-66
2021/07/20 06:13:25;;;;;;;2.28;1.80;;;16.70;99.90;;;;;;4952900;29;20272;-67
2021/07/20 06:15:53;;;;;;;5.90;2.38;;;16.70;99.90;;;;;;4952524;28;20241;-66
2021/07/20 06:18:19;;;;;;;4.35;2.40;;;16.80;99.90;;;;;;4951207;29;20200;-68
2021/07/20 06:20:55;;;;;;;2.53;1.77;;;16.80;99.90;;;;;;4952732;28;20209;-67
2021/07/20 06:23:21;;;;;;;2.22;1.70;;;16.80;99.90;;;;;;4953105;29;20220;-67
2021/07/20 06:25:51;;;;;;;2.90;1.65;;;16.80;99.90;;;;;;4952052;28;20202;-68
2021/07/20 06:28:18;;;;;;;2.92;2.08;;;16.90;99.90;;;;;;4952166;29;20190;-67
2021/07/20 06:30:46;;;;;;;2.78;2.05;;;16.90;99.90;;;;;;4952383;28;20286;-67
2021/07/20 06:33:13;;;;;;;2.50;1.63;;;17.00;99.90;;;;;;4951820;28;20634;-68
2021/07/20 06:35:46;;;;;;;2.13;1.92;;;17.10;99.90;;;;;;4952539;28;20185;-66
2021/07/20 06:38:18;;;;;;;2.92;1.88;;;17.20;99.90;;;;;;4952375;29;20178;-68
2021/07/20 06:40:47;;;;;;;5.75;2.22;;;17.30;99.90;;;;;;4952835;29;20253;-68
2021/07/20 06:43:14;;;;;;;1.67;1.50;;;17.40;99.90;;;;;;4953317;29;20755;-66
2021/07/20 06:45:42;;;;;;;3.65;2.00;;;17.40;99.90;;;;;;4951042;28;20216;-67
2021/07/20 06:48:11;;;;;;;3.08;2.13;;;17.30;99.90;;;;;;4951986;29;20209;-67
2021/07/20 06:50:44;;;;;;;2.88;1.95;;;17.40;99.90;;;;;;4954331;28;20296;-66
2021/07/20 06:53:14;;;;;;;3.42;1.73;;;17.40;99.90;;;;;;4947370;29;20671;-66
2021/07/20 06:55:52;;;;;;;3.10;1.70;;;17.40;99.90;;;;;;4946411;28;20260;-68
2021/07/20 06:58:19;;;;;;;3.47;1.88;;;17.40;99.90;;;;;;4945474;29;20850;-67
2021/07/20 07:00:53;;;;;;;2.78;1.48;;;17.30;99.90;;;;;;4946211;28;20216;-66
2021/07/20 07:03:23;;;;;;;7.07;1.83;;;17.40;99.90;;;;;;4946571;28;20668;-69
2021/07/20 07:05:50;;;;;;;2.05;1.77;;;17.50;99.90;;;;;;4946178;28;20209;-67
2021/07/20 07:08:18;;;;;;;2.40;1.67;;;17.60;99.90;;;;;;4946295;28;20190;-68
2021/07/20 07:10:45;;;;;;;3.08;1.98;;;17.70;99.90;;;;;;4945027;29;20602;-67
2021/07/20 07:13:12;;;;;;;2.30;1.40;;;17.70;99.90;;;;;;4946508;28;20268;-66
2021/07/20 07:15:38;;;;;;;2.70;2.03;;;17.90;99.90;;;;;;4946177;28;20641;-66
2021/07/20 07:18:05;;;;;;;1.70;1.58;;;17.90;99.90;;;;;;4946212;28;20639;-68
2021/07/20 07:20:31;;;;;;;2.08;1.67;;;17.90;99.90;;;;;;4946676;28;20201;-68
2021/07/20 07:22:59;;;;;;;2.33;1.58;;;17.90;99.90;;;;;;4946450;28;20209;-68
2021/07/20 07:25:25;;;;;;;1.63;1.40;;;18.10;99.90;;;;;;4945580;29;20293;-65
2021/07/20 07:27:53;;;;;;;1.67;1.30;;;18.20;99.90;;;;;;4946224;28;20196;-67
2021/07/20 07:30:20;;;;;;;2.55;1.60;;;18.30;99.90;;;;;;4946278;28;20198;-68
2021/07/20 07:32:48;;;;;;;2.70;1.40;;;18.40;99.90;;;;;;4946141;28;20536;-65
2021/07/20 07:35:14;;;;;;;1.33;1.13;;;18.60;99.90;;;;;;4945599;28;20189;-66
2021/07/20 07:37:41;;;;;;;2.95;1.15;;;18.60;99.90;;;;;;4944550;29;20589;-66
2021/07/20 07:40:08;;;;;;;1.48;1.30;;;18.70;99.90;;;;;;4946137;28;20292;-67
2021/07/20 07:42:37;;;;;;;2.78;1.20;;;18.80;99.90;;;;;;4945284;28;20193;-66
2021/07/20 07:45:05;;;;;;;2.40;1.50;;;18.90;99.90;;;;;;4944870;28;20201;-68
2021/07/20 07:47:32;;;;;;;1.77;1.38;;;19.00;99.90;;;;;;4945891;28;20602;-64
2021/07/20 07:49:59;;;;;;;2.13;1.23;;;19.30;99.90;;;;;;4945675;28;20202;-67
2021/07/20 07:52:26;;;;;;;1.48;1.17;;;19.50;99.90;;;;;;4945659;28;20197;-66
2021/07/20 07:54:52;;;;;;;1.38;1.23;;;19.70;99.90;;;;;;4946203;28;20261;-68
2021/07/20 07:57:19;;;;;;;1.30;1.20;;;19.80;99.90;;;;;;4944823;28;20224;-67
2021/07/20 07:59:48;;;;;;;2.25;1.20;;;19.80;99.90;;;;;;4944592;28;20835;-69
2021/07/20 08:02:21;;;;;;;2.25;1.15;;;20.00;99.90;;;;;;4944605;28;20199;-66
2021/07/20 08:04:49;;;;;;;1.45;1.05;;;20.30;99.90;;;;;;4945487;29;20200;-68
2021/07/20 08:07:18;;;;;;;1.75;1.27;;;20.30;99.90;;;;;;4945141;28;20182;-67
2021/07/20 08:09:46;;;;;;;1.45;1.35;;;20.40;99.90;;;;;;4945721;28;20208;-67
2021/07/20 08:12:14;;;;;;;1.95;0.90;;;20.30;99.90;;;;;;4946319;28;20193;-68
2021/07/20 08:14:40;;;;;;;2.22;1.15;;;20.30;99.90;;;;;;4946277;28;20197;-67
2021/07/20 08:17:06;;;;;;;2.13;1.15;;;20.00;99.90;;;;;;4945436;28;20204;-68
2021/07/20 08:19:36;;;;;;;1.20;1.10;;;19.70;99.90;;;;;;4945649;28;20685;-66
2021/07/20 08:22:07;;;;;;;2.78;1.25;;;19.50;99.90;;;;;;4945791;28;20264;-68
2021/07/20 08:24:36;;;;;;;3.70;1.40;;;19.30;99.90;;;;;;4946084;28;20189;-68
2021/07/20 08:27:15;;;;;;;1.70;1.30;;;19.10;99.90;;;;;;4945034;28;20235;-69
2021/07/20 08:29:44;;;;;;;1.98;1.30;;;19.00;99.90;;;;;;4945598;28;20200;-66
2021/07/20 08:32:18;;;;;;;1.15;1.05;;;19.10;99.90;;;;;;4945500;28;20184;-69
2021/07/20 08:34:53;;;;;;;1.40;1.00;;;19.10;99.90;;;;;;4945444;28;20201;-67
2021/07/20 08:37:20;;;;;;;1.48;1.30;;;19.20;99.90;;;;;;4944825;28;20188;-68
2021/07/20 08:39:48;;;;;;;1.77;1.40;;;19.50;99.90;;;;;;4943908;28;20229;-66
2021/07/20 08:42:45;;;;;;;1.75;1.50;;;19.70;99.90;;;;;;4945340;28;20271;-68
2021/07/20 08:45:17;;;;;;;2.17;1.40;;;19.90;99.90;;;;;;4945410;28;20206;-68
2021/07/20 08:48:07;;;;;;;3.75;1.40;;;20.00;99.90;;;;;;4945552;28;20182;-67
2021/07/20 08:51:00;;;;;;;1.83;1.35;;;20.20;99.90;;;;;;4945147;29;20661;-67
2021/07/20 08:53:40;;;;;;;1.25;1.08;;;20.30;99.90;;;;;;4945266;29;20208;-65
2021/07/20 08:56:08;;;;;;;1.88;1.40;;;20.40;99.90;;;;;;4945213;28;20186;-67
2021/07/20 08:58:42;;;;;;;2.17;1.15;;;20.50;99.90;;;;;;4949034;28;20182;-68
2021/07/20 09:01:17;;;;;;;1.10;1.00;;;20.60;99.90;;;;;;4947679;28;20292;-66
2021/07/20 09:03:47;;;;;;;1.70;1.20;;;20.80;99.90;;;;;;4947740;28;20272;-68
2021/07/20 09:06:25;;;;;;;2.17;1.30;;;21.00;99.90;;;;;;4945924;28;20229;-67
2021/07/20 09:09:11;;;;;;;1.25;0.90;;;20.90;99.90;;;;;;4945348;28;20760;-66
2021/07/20 09:11:45;;;;;;;1.42;0.90;;;20.90;99.90;;;;;;4946504;29;20193;-67
2021/07/20 09:14:18;;;;;;;1.05;0.95;;;20.80;99.90;;;;;;4946090;28;20724;-65
2021/07/20 09:16:48;;;;;;;1.23;0.80;;;20.70;99.90;;;;;;4945743;28;20192;-68
2021/07/20 09:19:33;;;;;;;0.90;0.88;;;20.80;99.90;;;;;;4947504;28;20216;-64
2021/07/20 09:22:09;;;;;;;1.55;0.90;;;21.00;99.90;;;;;;4946897;28;20201;-66
2021/07/20 09:25:09;;;;;;;1.45;1.17;;;21.00;99.90;;;;;;4940858;28;20197;-67
2021/07/20 09:27:46;;;;;;;1.35;0.95;;;21.40;99.90;;;;;;4946392;29;20700;-67
2021/07/20 09:30:22;;;;;;;1.13;0.80;;;21.40;99.90;;;;;;4944091;29;20763;-66
2021/07/20 09:33:32;;;;;;;1.40;1.05;;;21.40;99.90;;;;;;4948230;28;20189;-67
2021/07/20 09:36:01;;;;;;;1.05;0.95;;;21.40;99.90;;;;;;4947184;29;20225;-65
2021/07/20 09:39:17;;;;;;;1.27;1.17;;;21.30;99.90;;;;;;4947733;28;20277;-67
2021/07/20 09:42:00;;;;;;;1.00;0.90;;;20.90;99.90;;;;;;4929911;29;20649;-65
2021/07/20 09:44:39;;;;;;;2.58;1.42;;;20.70;99.90;;;;;;4947370;29;20213;-66
2021/07/20 09:47:19;;;;;;;0.90;0.80;;;20.30;99.90;;;;;;4947019;29;20213;-65
2021/07/20 09:50:07;;;;;;;2.47;1.05;;;20.30;99.90;;;;;;4947353;28;20210;-63
2021/07/20 09:52:42;;;;;;;2.08;1.05;;;20.30;99.90;;;;;;4946517;29;21118;-64
2021/07/20 09:55:45;;;;;;;1.20;1.08;;;20.60;99.90;;;;;;4946941;29;20177;-63
2021/07/20 09:58:15;;;;;;;2.78;0.90;;;20.80;99.90;;;;;;4947097;29;20186;-67
2021/07/20 10:01:02;;;;;;;2.45;1.52;;;20.70;99.90;;;;;;4945822;28;20202;-65
2021/07/20 10:03:56;;;;;;;1.75;1.33;;;20.70;99.90;;;;;;4962205;28;20194;-67
2021/07/20 10:06:48;;;;;;;1.77;1.08;;;20.90;99.90;;;;;;4943143;29;20240;-63
2021/07/20 10:09:25;;;;;;;1.60;1.48;;;21.20;99.90;;;;;;4946238;28;20209;-66
2021/07/20 10:11:53;;;;;;;1.65;1.10;;;21.70;99.90;;;;;;4947513;28;20174;-65
2021/07/20 10:14:29;;;;;;;1.30;1.00;;;21.80;99.90;;;;;;4947326;28;20190;-67
2021/07/20 10:17:04;;;;;;;1.33;1.00;;;22.00;99.90;;;;;;4945287;28;20192;-66
2021/07/20 10:19:34;;;;;;;1.55;1.10;;;21.80;99.90;;;;;;4946913;28;20288;-66
2021/07/20 10:22:03;;;;;;;2.10;1.45;;;22.40;99.90;;;;;;4945856;28;20198;-70
2021/07/20 10:24:32;;;;;;;1.88;1.00;;;22.70;99.90;;;;;;4947089;28;20190;-68
2021/07/20 10:27:11;;;;;;;2.47;1.08;;;22.60;99.90;;;;;;4946660;28;20295;-67
2021/07/20 10:30:04;;;;;;;1.27;1.00;;;22.80;99.90;;;;;;4945417;28;20259;-68
2021/07/20 10:32:59;;;;;;;0.93;0.93;;;23.10;99.90;;;;;;4946120;29;20173;-67
2021/07/20 10:35:54;;;;;;;2.78;1.00;;;23.10;99.90;;;;;;4944810;29;20194;-69
2021/07/20 10:38:26;;;;;;;0.80;0.80;;;23.40;99.90;;;;;;4944179;29;20306;-66
2021/07/20 10:40:53;;;;;;;1.08;0.93;;;23.40;99.90;;;;;;4946675;28;20213;-65
2021/07/20 10:43:27;;;;;;;1.33;0.80;;;23.30;99.90;;;;;;4946446;28;20185;-67
2021/07/20 10:45:53;;;;;;;2.30;0.90;;;23.30;99.90;;;;;;4945894;28;20213;-67
2021/07/20 10:48:23;;;;;;;0.80;0.80;;;23.00;99.90;;;;;;4946465;28;20177;-68
2021/07/20 10:51:18;;;;;;;2.10;1.10;;;22.60;99.90;;;;;;4946675;28;20197;-66
2021/07/20 10:54:21;;;;;;;2.33;0.95;;;22.90;99.90;;;;;;4945323;29;20859;-66
2021/07/20 10:56:54;;;;;;;4.13;1.35;;;22.70;99.90;;;;;;4945951;28;20296;-66
2021/07/20 10:59:57;;;;;;;3.67;1.17;;;22.60;99.90;;;;;;4946082;28;20272;-66
2021/07/20 11:02:23;;;;;;;1.75;0.90;;;22.70;99.90;;;;;;4946028;29;20392;-65
2021/07/20 11:04:57;;;;;;;1.27;0.90;;;22.60;99.90;;;;;;4946463;28;20645;-66
2021/07/20 11:07:45;;;;;;;1.10;1.00;;;22.60;99.90;;;;;;4945239;29;20181;-67
2021/07/20 11:10:16;;;;;;;1.25;0.93;;;22.70;99.90;;;;;;4960268;28;20201;-66
2021/07/20 11:12:44;;;;;;;1.20;0.93;;;22.90;99.90;;;;;;4946242;28;20281;-67
2021/07/20 11:15:10;;;;;;;1.48;0.82;;;23.00;99.90;;;;;;4945620;28;20255;-66
2021/07/20 11:17:39;;;;;;;1.10;0.80;;;22.90;99.90;;;;;;4945265;28;20181;-68
2021/07/20 11:20:13;;;;;;;2.90;1.10;;;23.10;99.90;;;;;;4943472;28;20209;-66
2021/07/20 11:22:41;;;;;;;1.98;1.10;;;22.80;99.90;;;;;;4946100;28;20185;-69
2021/07/20 11:25:08;;;;;;;0.85;0.80;;;22.70;99.90;;;;;;4945936;28;20190;-70
2021/07/20 11:27:39;;;;;;;1.38;0.90;;;22.50;99.90;;;;;;4945032;28;20213;-68
2021/07/20 11:30:17;;;;;;;1.02;0.85;;;22.40;99.90;;;;;;4945632;28;20197;-66
2021/07/20 11:32:57;;;;;;;1.73;1.20;;;22.40;99.90;;;;;;4945551;28;20184;-66
2021/07/20 11:35:25;;;;;;;1.58;0.90;;;22.50;99.90;;;;;;4944822;29;20535;-68
2021/07/20 11:38:03;;;;;;;1.00;0.70;;;22.20;99.90;;;;;;4943924;28;20200;-67
2021/07/20 11:41:06;;;;;;;0.60;0.60;;;22.40;99.90;;;;;;4944107;28;20747;-66
2021/07/20 11:43:50;;;;;;;1.77;0.90;;;22.70;99.90;;;;;;4945557;28;20197;-70
2021/07/20 11:46:22;;;;;;;1.33;1.17;;;22.90;99.90;;;;;;4944732;28;20224;-66
2021/07/20 11:48:54;;;;;;;1.35;0.93;;;23.10;99.90;;;;;;4945366;28;20284;-68
2021/07/20 11:51:31;;;;;;;2.05;0.80;;;23.20;99.90;;;;;;4943810;29;20186;-66
2021/07/20 11:54:00;;;;;;;1.23;0.88;;;23.00;99.90;;;;;;4945674;28;20617;-66
2021/07/20 11:56:43;;;;;;;0.77;0.77;;;22.80;99.70;;;;;;4943870;29;20185;-69
2021/07/20 11:59:36;;;;;;;0.90;0.77;;;23.00;99.70;;;;;;4945855;28;20860;-64
2021/07/20 12:02:47;;;;;;;0.90;0.80;;;23.00;98.10;;;;;;4943300;28;20553;-66
2021/07/20 12:05:27;;;;;;;1.08;0.95;;;22.90;97.60;;;;;;4945096;28;20208;-64
2021/07/20 12:08:22;;;;;;;1.23;0.90;;;23.10;99.90;;;;;;4961053;28;20608;-63
2021/07/20 12:11:29;;;;;;;1.27;0.70;;;23.30;99.90;;;;;;4943964;28;20316;-63
2021/07/20 12:14:06;;;;;;;0.90;0.80;;;23.60;99.90;;;;;;4908998;29;20182;-66
2021/07/20 12:16:32;;;;;;;2.22;0.80;;;23.70;99.90;;;;;;4902241;29;20187;-68
2021/07/20 12:19:02;;;;;;;1.40;1.00;;;23.40;99.90;;;;;;4925826;28;20197;-65
2021/07/20 12:21:43;;;;;;;3.17;1.20;;;23.20;99.90;;;;;;4947321;29;20209;-64
2021/07/20 12:24:27;;;;;;;0.80;0.80;;;23.10;99.90;;;;;;4962618;28;20213;-67
2021/07/20 12:27:15;;;;;;;1.50;0.93;;;22.80;99.90;;;;;;4947512;29;20213;-67
2021/07/20 12:32:16;;;;;;;4.05;1.52;;;22.50;99.90;;;;;;5606750;23;20709;-78
2021/07/20 12:34:43;;;;;;;1.10;1.00;;;22.80;99.90;;;;;;4955067;28;20181;-77
2021/07/20 12:37:09;;;;;;;2.05;1.20;;;22.90;99.90;;;;;;4947013;28;20202;-78
2021/07/20 12:39:39;;;;;;;2.25;1.42;;;22.90;99.90;;;;;;4960929;28;20189;-78
2021/07/20 12:42:04;;;;;;;2.05;1.20;;;22.80;99.90;;;;;;4952239;28;20213;-76
2021/07/20 12:44:31;;;;;;;2.25;0.95;;;22.80;99.90;;;;;;4945983;28;20184;-77
2021/07/20 12:47:06;;;;;;;1.33;1.23;;;23.00;99.90;;;;;;4953492;28;20819;-76
2021/07/20 12:49:33;;;;;;;1.42;1.27;;;23.10;99.90;;;;;;4951260;28;20217;-78
2021/07/20 12:51:59;;;;;;;1.73;0.93;;;23.30;99.90;;;;;;4945398;28;20206;-77
2021/07/20 12:54:39;;;;;;;1.45;1.15;;;23.50;99.90;;;;;;4961869;28;20212;-75
2021/07/20 12:57:05;;;;;;;1.25;1.15;;;23.80;99.90;;;;;;4955904;28;20235;-76
2021/07/20 12:59:39;;;;;;;1.77;1.30;;;24.10;99.90;;;;;;4955386;28;20196;-75
2021/07/20 13:02:11;;;;;;;2.33;0.90;;;24.30;99.90;;;;;;4947613;28;20216;-78
2021/07/20 13:04:36;;;;;;;1.55;1.17;;;24.00;99.90;;;;;;4961951;28;20197;-77
2021/07/20 13:07:02;;;;;;;2.38;1.33;;;24.20;99.90;;;;;;4947332;28;20220;-76
2021/07/20 13:09:28;;;;;;;1.20;0.80;;;24.30;99.90;;;;;;4955557;28;20669;-76
2021/07/20 13:11:56;;;;;;;1.33;1.23;;;24.50;99.90;;;;;;4959873;28;20268;-77
2021/07/20 13:14:22;;;;;;;1.40;1.00;;;24.80;99.90;;;;;;4958187;28;20208;-77
2021/07/20 13:16:48;;;;;;;2.08;1.15;;;25.00;99.90;;;;;;4956019;28;20297;-78